sensor_id;sensor_type;location;lat;lon;timestamp;P1;durP1;ratioP1;P2;durP2;ratioP2
45314;SDS011;31051;51.540;5.852;2023-11-21T00:12:19;14.4;;;12.4;;
45314;SDS011;31051;51.540;5.852;2023-11-21T00:25:18;16.6;;;12.4;;
45314;SDS011;31051;51.540;5.852;2023-11-21T00:38:17;18.6;;;13.5;;
45314;SDS011;31051;51.540;5.852;2023-11-21T00:51:16;16.4;;;12.8;;
45314;SDS011;31051;51.540;5.852;2023-11-21T01:04:16;20.7;;;16.4;;
45314;SDS011;31051;51.540;5.852;2023-11-21T01:17:15;21.9;;;17.0;;
45314;SDS011;31051;51.540;5.852;2023-11-21T01:30:14;20.7;;;16.7;;
45314;SDS011;31051;51.540;5.852;2023-11-21T01:43:13;25.5;;;18.5;;
45314;SDS011;31051;51.540;5.852;2023-11-21T01:56:13;31.4;;;19.2;;
45314;SDS011;31051;51.540;5.852;2023-11-21T02:09:12;50.3;;;17.7;;
45314;SDS011;31051;51.540;5.852;2023-11-21T02:22:11;63.1;;;20.2;;
45314;SDS011;31051;51.540;5.852;2023-11-21T02:35:10;64.9;;;20.5;;
45314;SDS011;31051;51.540;5.852;2023-11-21T02:48:10;99.7;;;21.6;;
45314;SDS011;31051;51.540;5.852;2023-11-21T03:01:09;86.1;;;22.0;;
45314;SDS011;31051;51.540;5.852;2023-11-21T03:14:08;85.8;;;20.6;;
45314;SDS011;31051;51.540;5.852;2023-11-21T03:27:07;53.8;;;18.6;;
45314;SDS011;31051;51.540;5.852;2023-11-21T03:40:07;90.4;;;20.6;;
45314;SDS011;31051;51.540;5.852;2023-11-21T03:53:06;87.2;;;22.8;;
45314;SDS011;31051;51.540;5.852;2023-11-21T04:06:05;108.8;;;21.4;;
45314;SDS011;31051;51.540;5.852;2023-11-21T04:19:04;94.8;;;20.8;;
45314;SDS011;31051;51.540;5.852;2023-11-21T04:32:04;57.4;;;17.3;;
45314;SDS011;31051;51.540;5.852;2023-11-21T04:45:03;82.6;;;20.0;;
45314;SDS011;31051;51.540;5.852;2023-11-21T04:58:02;55.0;;;19.2;;
45314;SDS011;31051;51.540;5.852;2023-11-21T05:11:01;75.9;;;21.4;;
45314;SDS011;31051;51.540;5.852;2023-11-21T05:24:01;67.3;;;21.9;;
45314;SDS011;31051;51.540;5.852;2023-11-21T05:37:00;53.1;;;20.0;;
45314;SDS011;31051;51.540;5.852;2023-11-21T05:49:59;26.7;;;20.8;;
45314;SDS011;31051;51.540;5.852;2023-11-21T06:02:58;19.9;;;16.9;;
45314;SDS011;31051;51.540;5.852;2023-11-21T06:15:58;18.7;;;16.7;;
45314;SDS011;31051;51.540;5.852;2023-11-21T06:28:57;21.0;;;17.5;;
45314;SDS011;31051;51.540;5.852;2023-11-21T06:41:56;20.6;;;18.2;;
45314;SDS011;31051;51.540;5.852;2023-11-21T06:54:55;22.5;;;19.6;;
45314;SDS011;31051;51.540;5.852;2023-11-21T07:07:55;29.0;;;21.5;;
45314;SDS011;31051;51.540;5.852;2023-11-21T07:20:54;24.7;;;20.5;;
45314;SDS011;31051;51.540;5.852;2023-11-21T07:33:53;23.4;;;19.8;;
45314;SDS011;31051;51.540;5.852;2023-11-21T07:46:52;23.8;;;20.2;;
45314;SDS011;31051;51.540;5.852;2023-11-21T07:59:52;19.8;;;17.6;;
45314;SDS011;31051;51.540;5.852;2023-11-21T08:12:51;17.0;;;15.3;;
45314;SDS011;31051;51.540;5.852;2023-11-21T08:25:50;18.5;;;16.6;;
45314;SDS011;31051;51.540;5.852;2023-11-21T08:38:49;19.7;;;17.6;;
45314;SDS011;31051;51.540;5.852;2023-11-21T08:51:49;21.5;;;19.0;;
45314;SDS011;31051;51.540;5.852;2023-11-21T09:04:48;19.8;;;17.5;;
45314;SDS011;31051;51.540;5.852;2023-11-21T09:17:47;17.8;;;15.7;;
45314;SDS011;31051;51.540;5.852;2023-11-21T09:30:46;18.5;;;16.5;;
45314;SDS011;31051;51.540;5.852;2023-11-21T09:43:46;20.5;;;17.4;;
45314;SDS011;31051;51.540;5.852;2023-11-21T09:56:45;22.6;;;19.4;;
45314;SDS011;31051;51.540;5.852;2023-11-21T10:09:44;22.2;;;18.7;;
45314;SDS011;31051;51.540;5.852;2023-11-21T10:22:43;23.4;;;19.2;;
45314;SDS011;31051;51.540;5.852;2023-11-21T10:35:43;17.1;;;15.0;;
45314;SDS011;31051;51.540;5.852;2023-11-21T10:48:42;14.7;;;13.2;;
45314;SDS011;31051;51.540;5.852;2023-11-21T11:01:41;16.0;;;14.2;;
45314;SDS011;31051;51.540;5.852;2023-11-21T11:14:41;14.7;;;13.1;;
45314;SDS011;31051;51.540;5.852;2023-11-21T11:27:40;14.7;;;12.9;;
45314;SDS011;31051;51.540;5.852;2023-11-21T11:40:39;16.6;;;14.3;;
45314;SDS011;31051;51.540;5.852;2023-11-21T11:53:38;17.7;;;15.5;;
45314;SDS011;31051;51.540;5.852;2023-11-21T12:06:38;15.5;;;13.9;;
45314;SDS011;31051;51.540;5.852;2023-11-21T12:19:37;18.0;;;16.1;;
45314;SDS011;31051;51.540;5.852;2023-11-21T12:32:36;20.1;;;17.5;;
45314;SDS011;31051;51.540;5.852;2023-11-21T12:45:36;18.8;;;16.4;;
45314;SDS011;31051;51.540;5.852;2023-11-21T12:58:35;19.7;;;17.2;;
45314;SDS011;31051;51.540;5.852;2023-11-21T13:11:34;19.0;;;17.0;;
45314;SDS011;31051;51.540;5.852;2023-11-21T13:24:34;18.5;;;16.5;;
45314;SDS011;31051;51.540;5.852;2023-11-21T13:37:33;19.4;;;17.0;;
45314;SDS011;31051;51.540;5.852;2023-11-21T13:50:32;21.0;;;17.7;;
45314;SDS011;31051;51.540;5.852;2023-11-21T14:03:32;16.6;;;14.4;;
45314;SDS011;31051;51.540;5.852;2023-11-21T14:16:31;13.0;;;11.6;;
45314;SDS011;31051;51.540;5.852;2023-11-21T14:29:30;12.4;;;11.2;;
45314;SDS011;31051;51.540;5.852;2023-11-21T14:42:30;10.5;;;7.8;;
45314;SDS011;31051;51.540;5.852;2023-11-21T14:55:29;10.4;;;9.2;;
45314;SDS011;31051;51.540;5.852;2023-11-21T15:08:28;12.3;;;10.9;;
45314;SDS011;31051;51.540;5.852;2023-11-21T15:21:27;12.8;;;10.9;;
45314;SDS011;31051;51.540;5.852;2023-11-21T15:34:27;12.5;;;10.9;;
45314;SDS011;31051;51.540;5.852;2023-11-21T15:47:26;12.0;;;10.5;;
45314;SDS011;31051;51.540;5.852;2023-11-21T16:00:25;12.3;;;11.0;;
45314;SDS011;31051;51.540;5.852;2023-11-21T16:13:25;10.2;;;8.6;;
45314;SDS011;31051;51.540;5.852;2023-11-21T16:26:24;9.6;;;8.7;;
45314;SDS011;31051;51.540;5.852;2023-11-21T16:39:23;11.1;;;10.0;;
45314;SDS011;31051;51.540;5.852;2023-11-21T16:52:22;14.4;;;13.1;;
45314;SDS011;31051;51.540;5.852;2023-11-21T17:05:22;16.2;;;14.8;;
45314;SDS011;31051;51.540;5.852;2023-11-21T17:18:21;13.7;;;12.2;;
45314;SDS011;31051;51.540;5.852;2023-11-21T17:31:20;11.7;;;10.6;;
45314;SDS011;31051;51.540;5.852;2023-11-21T17:44:20;9.5;;;8.7;;
45314;SDS011;31051;51.540;5.852;2023-11-21T17:57:19;8.8;;;8.0;;
45314;SDS011;31051;51.540;5.852;2023-11-21T18:10:18;8.4;;;7.5;;
45314;SDS011;31051;51.540;5.852;2023-11-21T18:23:17;8.4;;;7.7;;
45314;SDS011;31051;51.540;5.852;2023-11-21T18:36:17;9.2;;;8.4;;
45314;SDS011;31051;51.540;5.852;2023-11-21T18:49:16;9.6;;;8.8;;
45314;SDS011;31051;51.540;5.852;2023-11-21T19:02:15;9.5;;;8.6;;
45314;SDS011;31051;51.540;5.852;2023-11-21T19:15:14;10.9;;;9.9;;
45314;SDS011;31051;51.540;5.852;2023-11-21T19:28:14;11.2;;;10.2;;
45314;SDS011;31051;51.540;5.852;2023-11-21T19:41:13;11.7;;;10.7;;
45314;SDS011;31051;51.540;5.852;2023-11-21T19:54:12;10.6;;;9.7;;
45314;SDS011;31051;51.540;5.852;2023-11-21T20:07:11;10.4;;;9.5;;
45314;SDS011;31051;51.540;5.852;2023-11-21T20:20:10;9.4;;;8.6;;
45314;SDS011;31051;51.540;5.852;2023-11-21T20:33:10;10.3;;;9.3;;
45314;SDS011;31051;51.540;5.852;2023-11-21T20:46:09;9.8;;;9.0;;
45314;SDS011;31051;51.540;5.852;2023-11-21T20:59:08;10.6;;;9.6;;
45314;SDS011;31051;51.540;5.852;2023-11-21T21:12:07;9.4;;;8.6;;
45314;SDS011;31051;51.540;5.852;2023-11-21T21:25:06;9.5;;;8.6;;
45314;SDS011;31051;51.540;5.852;2023-11-21T21:38:06;9.0;;;8.2;;
45314;SDS011;31051;51.540;5.852;2023-11-21T21:51:05;9.0;;;8.2;;
45314;SDS011;31051;51.540;5.852;2023-11-21T22:04:04;9.1;;;8.3;;
45314;SDS011;31051;51.540;5.852;2023-11-21T22:17:03;11.7;;;10.6;;
45314;SDS011;31051;51.540;5.852;2023-11-21T22:30:02;11.2;;;10.2;;
45314;SDS011;31051;51.540;5.852;2023-11-21T22:43:02;13.6;;;12.4;;
45314;SDS011;31051;51.540;5.852;2023-11-21T22:56:01;13.1;;;11.9;;
45314;SDS011;31051;51.540;5.852;2023-11-21T23:09:00;10.0;;;9.1;;
45314;SDS011;31051;51.540;5.852;2023-11-21T23:21:59;9.9;;;9.0;;
45314;SDS011;31051;51.540;5.852;2023-11-21T23:34:58;10.6;;;9.6;;
45314;SDS011;31051;51.540;5.852;2023-11-21T23:47:57;10.8;;;9.8;;
